sensor_id;sensor_type;location;lat;lon;timestamp;temperature;humidity
66119;DHT22;52912;48.564;9.302;2023-04-08T00:02:13;7.99;92.27
66119;DHT22;52912;48.564;9.302;2023-04-08T00:04:39;8.02;92.10
66119;DHT22;52912;48.564;9.302;2023-04-08T00:07:04;8.05;92.11
66119;DHT22;52912;48.564;9.302;2023-04-08T00:09:30;8.05;92.86
66119;DHT22;52912;48.564;9.302;2023-04-08T00:11:55;8.03;92.43
66119;DHT22;52912;48.564;9.302;2023-04-08T00:14:20;8.02;92.18
66119;DHT22;52912;48.564;9.302;2023-04-08T00:16:47;8.06;92.48
66119;DHT22;52912;48.564;9.302;2023-04-08T00:19:13;8.06;92.80
66119;DHT22;52912;48.564;9.302;2023-04-08T00:21:38;7.94;93.56
66119;DHT22;52912;48.564;9.302;2023-04-08T00:24:04;8.02;93.37
66119;DHT22;52912;48.564;9.302;2023-04-08T00:26:29;8.02;92.88
66119;DHT22;52912;48.564;9.302;2023-04-08T00:28:55;8.02;93.12
66119;DHT22;52912;48.564;9.302;2023-04-08T00:31:20;7.97;93.69
66119;DHT22;52912;48.564;9.302;2023-04-08T00:33:47;8.03;93.37
66119;DHT22;52912;48.564;9.302;2023-04-08T00:36:13;7.99;92.88
66119;DHT22;52912;48.564;9.302;2023-04-08T00:38:38;8.01;93.12
66119;DHT22;52912;48.564;9.302;2023-04-08T00:41:04;8.03;93.20
66119;DHT22;52912;48.564;9.302;2023-04-08T00:43:29;7.99;93.11
66119;DHT22;52912;48.564;9.302;2023-04-08T00:45:54;7.98;93.14
66119;DHT22;52912;48.564;9.302;2023-04-08T00:48:20;8.01;93.26
66119;DHT22;52912;48.564;9.302;2023-04-08T00:50:47;7.98;93.85
66119;DHT22;52912;48.564;9.302;2023-04-08T00:53:14;7.97;93.55
66119;DHT22;52912;48.564;9.302;2023-04-08T00:55:40;7.92;93.66
66119;DHT22;52912;48.564;9.302;2023-04-08T00:58:06;7.92;93.65
66119;DHT22;52912;48.564;9.302;2023-04-08T01:00:32;7.95;92.79
66119;DHT22;52912;48.564;9.302;2023-04-08T01:03:04;7.99;93.44
66119;DHT22;52912;48.564;9.302;2023-04-08T01:05:35;7.99;93.49
66119;DHT22;52912;48.564;9.302;2023-04-08T01:08:07;7.99;93.17
66119;DHT22;52912;48.564;9.302;2023-04-08T01:10:36;7.99;93.20
66119;DHT22;52912;48.564;9.302;2023-04-08T01:13:04;8.03;93.17
66119;DHT22;52912;48.564;9.302;2023-04-08T01:15:30;7.99;93.35
66119;DHT22;52912;48.564;9.302;2023-04-08T01:17:58;8.02;93.38
66119;DHT22;52912;48.564;9.302;2023-04-08T01:20:25;7.99;93.54
66119;DHT22;52912;48.564;9.302;2023-04-08T01:23:02;8.03;93.30
66119;DHT22;52912;48.564;9.302;2023-04-08T01:25:33;8.03;93.43
66119;DHT22;52912;48.564;9.302;2023-04-08T01:28:03;7.97;93.23
66119;DHT22;52912;48.564;9.302;2023-04-08T01:30:29;7.95;93.32
66119;DHT22;52912;48.564;9.302;2023-04-08T01:32:57;8.01;93.46
66119;DHT22;52912;48.564;9.302;2023-04-08T01:35:24;7.99;93.58
66119;DHT22;52912;48.564;9.302;2023-04-08T01:37:50;8.01;93.63
66119;DHT22;52912;48.564;9.302;2023-04-08T01:40:16;7.98;93.34
66119;DHT22;52912;48.564;9.302;2023-04-08T01:42:43;7.98;93.40
66119;DHT22;52912;48.564;9.302;2023-04-08T01:45:11;7.97;93.20
66119;DHT22;52912;48.564;9.302;2023-04-08T01:47:37;8.05;93.18
66119;DHT22;52912;48.564;9.302;2023-04-08T01:50:05;7.95;92.70
66119;DHT22;52912;48.564;9.302;2023-04-08T01:52:34;7.97;92.70
66119;DHT22;52912;48.564;9.302;2023-04-08T01:54:59;8.02;93.25
66119;DHT22;52912;48.564;9.302;2023-04-08T01:57:27;7.97;93.35
66119;DHT22;52912;48.564;9.302;2023-04-08T01:59:55;8.02;92.83
66119;DHT22;52912;48.564;9.302;2023-04-08T02:02:26;8.05;93.13
66119;DHT22;52912;48.564;9.302;2023-04-08T02:04:52;8.03;92.73
66119;DHT22;52912;48.564;9.302;2023-04-08T02:07:18;8.01;92.61
66119;DHT22;52912;48.564;9.302;2023-04-08T02:09:44;7.95;92.69
66119;DHT22;52912;48.564;9.302;2023-04-08T02:12:09;7.99;92.43
66119;DHT22;52912;48.564;9.302;2023-04-08T02:14:35;8.11;92.20
66119;DHT22;52912;48.564;9.302;2023-04-08T02:17:05;7.91;92.60
66119;DHT22;52912;48.564;9.302;2023-04-08T02:19:40;7.97;92.82
66119;DHT22;52912;48.564;9.302;2023-04-08T02:22:11;7.88;92.61
66119;DHT22;52912;48.564;9.302;2023-04-08T02:24:38;7.85;92.98
66119;DHT22;52912;48.564;9.302;2023-04-08T02:27:04;7.90;92.19
66119;DHT22;52912;48.564;9.302;2023-04-08T02:29:32;7.94;92.44
66119;DHT22;52912;48.564;9.302;2023-04-08T02:32:00;7.81;92.74
66119;DHT22;52912;48.564;9.302;2023-04-08T02:34:26;7.87;92.87
66119;DHT22;52912;48.564;9.302;2023-04-08T02:36:53;7.84;92.87
66119;DHT22;52912;48.564;9.302;2023-04-08T02:39:19;7.83;92.50
66119;DHT22;52912;48.564;9.302;2023-04-08T02:41:44;7.88;92.82
66119;DHT22;52912;48.564;9.302;2023-04-08T02:44:10;7.87;92.82
66119;DHT22;52912;48.564;9.302;2023-04-08T02:46:35;7.87;93.09
66119;DHT22;52912;48.564;9.302;2023-04-08T02:49:01;7.84;92.81
66119;DHT22;52912;48.564;9.302;2023-04-08T02:51:26;7.88;92.53
66119;DHT22;52912;48.564;9.302;2023-04-08T02:53:53;7.85;92.91
66119;DHT22;52912;48.564;9.302;2023-04-08T02:56:18;7.91;92.60
66119;DHT22;52912;48.564;9.302;2023-04-08T02:58:44;7.91;92.22
66119;DHT22;52912;48.564;9.302;2023-04-08T03:01:09;7.91;92.72
66119;DHT22;52912;48.564;9.302;2023-04-08T03:03:35;7.97;92.47
66119;DHT22;52912;48.564;9.302;2023-04-08T03:06:00;7.94;92.72
66119;DHT22;52912;48.564;9.302;2023-04-08T03:08:26;7.97;92.34
66119;DHT22;52912;48.564;9.302;2023-04-08T03:10:53;7.85;92.24
66119;DHT22;52912;48.564;9.302;2023-04-08T03:13:18;7.80;92.24
66119;DHT22;52912;48.564;9.302;2023-04-08T03:15:44;7.73;92.13
66119;DHT22;52912;48.564;9.302;2023-04-08T03:18:09;7.75;92.14
66119;DHT22;52912;48.564;9.302;2023-04-08T03:20:34;7.81;92.04
66119;DHT22;52912;48.564;9.302;2023-04-08T03:23:00;7.83;92.54
66119;DHT22;52912;48.564;9.302;2023-04-08T03:25:25;7.83;92.34
66119;DHT22;52912;48.564;9.302;2023-04-08T03:27:52;7.84;91.93
66119;DHT22;52912;48.564;9.302;2023-04-08T03:30:18;7.84;92.16
66119;DHT22;52912;48.564;9.302;2023-04-08T03:32:43;7.85;91.77
66119;DHT22;52912;48.564;9.302;2023-04-08T03:35:08;7.80;91.70
66119;DHT22;52912;48.564;9.302;2023-04-08T03:37:34;7.85;91.63
66119;DHT22;52912;48.564;9.302;2023-04-08T03:39:59;7.83;91.77
66119;DHT22;52912;48.564;9.302;2023-04-08T03:42:25;7.81;91.84
66119;DHT22;52912;48.564;9.302;2023-04-08T03:44:52;7.78;92.10
66119;DHT22;52912;48.564;9.302;2023-04-08T03:47:17;7.83;91.78
66119;DHT22;52912;48.564;9.302;2023-04-08T03:49:43;7.85;91.21
66119;DHT22;52912;48.564;9.302;2023-04-08T03:52:08;7.80;92.24
66119;DHT22;52912;48.564;9.302;2023-04-08T03:54:33;7.78;92.55
66119;DHT22;52912;48.564;9.302;2023-04-08T03:56:59;7.70;93.10
66119;DHT22;52912;48.564;9.302;2023-04-08T03:59:24;7.63;93.00
66119;DHT22;52912;48.564;9.302;2023-04-08T04:01:51;7.60;93.46
66119;DHT22;52912;48.564;9.302;2023-04-08T04:04:17;7.57;93.40
66119;DHT22;52912;48.564;9.302;2023-04-08T04:06:42;7.52;93.64
66119;DHT22;52912;48.564;9.302;2023-04-08T04:09:07;7.55;93.56
66119;DHT22;52912;48.564;9.302;2023-04-08T04:11:33;7.47;93.98
66119;DHT22;52912;48.564;9.302;2023-04-08T04:13:58;7.39;94.54
66119;DHT22;52912;48.564;9.302;2023-04-08T04:16:24;7.40;94.70
66119;DHT22;52912;48.564;9.302;2023-04-08T04:18:52;7.45;94.36
66119;DHT22;52912;48.564;9.302;2023-04-08T04:21:18;7.50;93.87
66119;DHT22;52912;48.564;9.302;2023-04-08T04:23:43;7.47;93.72
66119;DHT22;52912;48.564;9.302;2023-04-08T04:26:09;7.39;93.85
66119;DHT22;52912;48.564;9.302;2023-04-08T04:28:34;7.21;94.67
66119;DHT22;52912;48.564;9.302;2023-04-08T04:31:00;7.23;94.63
66119;DHT22;52912;48.564;9.302;2023-04-08T04:33:25;7.35;94.20
66119;DHT22;52912;48.564;9.302;2023-04-08T04:35:52;7.33;93.83
66119;DHT22;52912;48.564;9.302;2023-04-08T04:38:17;7.23;94.24
66119;DHT22;52912;48.564;9.302;2023-04-08T04:40:43;7.26;94.74
66119;DHT22;52912;48.564;9.302;2023-04-08T04:43:08;7.23;94.68
66119;DHT22;52912;48.564;9.302;2023-04-08T04:45:34;7.28;94.32
66119;DHT22;52912;48.564;9.302;2023-04-08T04:48:00;7.23;94.43
66119;DHT22;52912;48.564;9.302;2023-04-08T04:50:26;7.26;94.42
66119;DHT22;52912;48.564;9.302;2023-04-08T04:52:52;7.22;94.43
66119;DHT22;52912;48.564;9.302;2023-04-08T04:55:18;7.16;94.92
66119;DHT22;52912;48.564;9.302;2023-04-08T04:57:43;7.22;94.71
66119;DHT22;52912;48.564;9.302;2023-04-08T05:00:09;7.32;94.29
66119;DHT22;52912;48.564;9.302;2023-04-08T05:02:35;7.32;93.93
66119;DHT22;52912;48.564;9.302;2023-04-08T05:05:00;7.26;94.10
66119;DHT22;52912;48.564;9.302;2023-04-08T05:07:26;7.29;93.88
66119;DHT22;52912;48.564;9.302;2023-04-08T05:09:53;7.23;94.00
66119;DHT22;52912;48.564;9.302;2023-04-08T05:12:18;7.21;94.38
66119;DHT22;52912;48.564;9.302;2023-04-08T05:14:44;7.11;94.27
66119;DHT22;52912;48.564;9.302;2023-04-08T05:17:09;7.26;94.18
66119;DHT22;52912;48.564;9.302;2023-04-08T05:19:35;7.30;93.87
66119;DHT22;52912;48.564;9.302;2023-04-08T05:22:00;7.29;93.83
66119;DHT22;52912;48.564;9.302;2023-04-08T05:24:25;7.36;93.71
66119;DHT22;52912;48.564;9.302;2023-04-08T05:26:52;7.38;93.57
66119;DHT22;52912;48.564;9.302;2023-04-08T05:29:18;7.33;94.16
66119;DHT22;52912;48.564;9.302;2023-04-08T05:31:43;7.33;93.63
66119;DHT22;52912;48.564;9.302;2023-04-08T05:34:09;7.26;94.03
66119;DHT22;52912;48.564;9.302;2023-04-08T05:36:34;7.35;93.87
66119;DHT22;52912;48.564;9.302;2023-04-08T05:39:00;7.36;93.77
66119;DHT22;52912;48.564;9.302;2023-04-08T05:41:25;7.32;94.16
66119;DHT22;52912;48.564;9.302;2023-04-08T05:43:52;7.33;93.99
66119;DHT22;52912;48.564;9.302;2023-04-08T05:46:17;7.35;94.15
66119;DHT22;52912;48.564;9.302;2023-04-08T05:48:43;7.40;94.00
66119;DHT22;52912;48.564;9.302;2023-04-08T05:51:12;7.47;94.17
66119;DHT22;52912;48.564;9.302;2023-04-08T05:53:37;7.52;93.50
66119;DHT22;52912;48.564;9.302;2023-04-08T05:56:03;7.52;93.54
66119;DHT22;52912;48.564;9.302;2023-04-08T05:58:29;7.55;94.08
66119;DHT22;52912;48.564;9.302;2023-04-08T06:00:55;7.56;93.55
66119;DHT22;52912;48.564;9.302;2023-04-08T06:03:21;7.64;93.43
66119;DHT22;52912;48.564;9.302;2023-04-08T06:05:46;7.64;93.01
66119;DHT22;52912;48.564;9.302;2023-04-08T06:08:12;7.67;93.07
66119;DHT22;52912;48.564;9.302;2023-04-08T06:10:37;7.63;92.95
66119;DHT22;52912;48.564;9.302;2023-04-08T06:13:03;7.60;92.63
66119;DHT22;52912;48.564;9.302;2023-04-08T06:15:28;7.64;92.92
66119;DHT22;52912;48.564;9.302;2023-04-08T06:17:55;7.63;93.12
66119;DHT22;52912;48.564;9.302;2023-04-08T06:20:20;7.73;93.03
66119;DHT22;52912;48.564;9.302;2023-04-08T06:22:46;7.70;92.67
66119;DHT22;52912;48.564;9.302;2023-04-08T06:25:11;7.77;92.93
66119;DHT22;52912;48.564;9.302;2023-04-08T06:27:37;7.75;92.59
66119;DHT22;52912;48.564;9.302;2023-04-08T06:30:02;7.78;92.92
66119;DHT22;52912;48.564;9.302;2023-04-08T06:32:28;7.80;92.47
66119;DHT22;52912;48.564;9.302;2023-04-08T06:34:55;7.73;91.95
66119;DHT22;52912;48.564;9.302;2023-04-08T06:37:20;7.71;92.44
66119;DHT22;52912;48.564;9.302;2023-04-08T06:39:46;7.81;92.44
66119;DHT22;52912;48.564;9.302;2023-04-08T06:42:11;7.80;92.36
66119;DHT22;52912;48.564;9.302;2023-04-08T06:44:37;7.78;92.36
66119;DHT22;52912;48.564;9.302;2023-04-08T06:47:02;7.80;92.91
66119;DHT22;52912;48.564;9.302;2023-04-08T06:49:28;7.75;92.82
66119;DHT22;52912;48.564;9.302;2023-04-08T06:51:55;7.85;91.81
66119;DHT22;52912;48.564;9.302;2023-04-08T06:54:20;7.80;92.16
66119;DHT22;52912;48.564;9.302;2023-04-08T06:56:46;7.69;92.36
66119;DHT22;52912;48.564;9.302;2023-04-08T06:59:11;7.81;91.72
66119;DHT22;52912;48.564;9.302;2023-04-08T07:01:37;7.78;91.66
66119;DHT22;52912;48.564;9.302;2023-04-08T07:04:02;7.87;91.09
66119;DHT22;52912;48.564;9.302;2023-04-08T07:06:28;7.69;91.89
66119;DHT22;52912;48.564;9.302;2023-04-08T07:08:54;7.71;91.05
66119;DHT22;52912;48.564;9.302;2023-04-08T07:11:20;7.77;91.44
66119;DHT22;52912;48.564;9.302;2023-04-08T07:13:45;7.80;91.12
66119;DHT22;52912;48.564;9.302;2023-04-08T07:16:11;7.88;91.07
66119;DHT22;52912;48.564;9.302;2023-04-08T07:18:36;7.95;90.17
66119;DHT22;52912;48.564;9.302;2023-04-08T07:21:02;7.92;90.47
66119;DHT22;52912;48.564;9.302;2023-04-08T07:23:27;7.94;90.43
66119;DHT22;52912;48.564;9.302;2023-04-08T07:25:54;8.03;90.35
66119;DHT22;52912;48.564;9.302;2023-04-08T07:28:19;8.18;89.82
66119;DHT22;52912;48.564;9.302;2023-04-08T07:30:45;8.03;89.95
66119;DHT22;52912;48.564;9.302;2023-04-08T07:33:11;8.15;90.04
66119;DHT22;52912;48.564;9.302;2023-04-08T07:35:36;8.21;90.04
66119;DHT22;52912;48.564;9.302;2023-04-08T07:38:02;8.11;90.26
66119;DHT22;52912;48.564;9.302;2023-04-08T07:40:27;8.22;90.39
66119;DHT22;52912;48.564;9.302;2023-04-08T07:42:54;8.24;89.79
66119;DHT22;52912;48.564;9.302;2023-04-08T07:45:20;8.22;89.79
66119;DHT22;52912;48.564;9.302;2023-04-08T07:47:45;8.03;90.31
66119;DHT22;52912;48.564;9.302;2023-04-08T07:50:11;8.02;90.43
66119;DHT22;52912;48.564;9.302;2023-04-08T07:52:37;8.06;89.88
66119;DHT22;52912;48.564;9.302;2023-04-08T07:55:02;8.11;89.50
66119;DHT22;52912;48.564;9.302;2023-04-08T07:57:28;8.08;89.17
66119;DHT22;52912;48.564;9.302;2023-04-08T07:59:55;8.03;89.12
66119;DHT22;52912;48.564;9.302;2023-04-08T08:02:20;8.19;89.46
66119;DHT22;52912;48.564;9.302;2023-04-08T08:04:45;8.28;89.28
66119;DHT22;52912;48.564;9.302;2023-04-08T08:07:11;8.39;89.25
66119;DHT22;52912;48.564;9.302;2023-04-08T08:09:36;8.32;89.18
66119;DHT22;52912;48.564;9.302;2023-04-08T08:12:02;8.32;88.44
66119;DHT22;52912;48.564;9.302;2023-04-08T08:14:27;8.33;88.09
66119;DHT22;52912;48.564;9.302;2023-04-08T08:16:56;8.25;89.06
66119;DHT22;52912;48.564;9.302;2023-04-08T08:19:21;8.24;89.98
66119;DHT22;52912;48.564;9.302;2023-04-08T08:21:47;8.45;89.13
66119;DHT22;52912;48.564;9.302;2023-04-08T08:24:13;8.59;88.01
66119;DHT22;52912;48.564;9.302;2023-04-08T08:26:38;8.59;87.37
66119;DHT22;52912;48.564;9.302;2023-04-08T08:29:04;8.68;87.88
66119;DHT22;52912;48.564;9.302;2023-04-08T08:31:30;8.98;87.35
66119;DHT22;52912;48.564;9.302;2023-04-08T08:33:57;9.07;86.37
66119;DHT22;52912;48.564;9.302;2023-04-08T08:36:22;9.33;85.11
66119;DHT22;52912;48.564;9.302;2023-04-08T08:38:47;9.37;85.72
66119;DHT22;52912;48.564;9.302;2023-04-08T08:41:13;9.08;85.72
66119;DHT22;52912;48.564;9.302;2023-04-08T08:43:38;9.07;85.61
66119;DHT22;52912;48.564;9.302;2023-04-08T08:46:05;8.93;86.17
66119;DHT22;52912;48.564;9.302;2023-04-08T08:48:32;9.19;86.01
66119;DHT22;52912;48.564;9.302;2023-04-08T08:50:59;9.27;85.62
66119;DHT22;52912;48.564;9.302;2023-04-08T08:53:28;9.33;84.21
66119;DHT22;52912;48.564;9.302;2023-04-08T08:55:54;9.48;84.60
66119;DHT22;52912;48.564;9.302;2023-04-08T08:58:19;9.44;84.87
66119;DHT22;52912;48.564;9.302;2023-04-08T09:00:44;9.08;85.46
66119;DHT22;52912;48.564;9.302;2023-04-08T09:03:14;9.11;85.53
66119;DHT22;52912;48.564;9.302;2023-04-08T09:05:46;9.27;85.39
66119;DHT22;52912;48.564;9.302;2023-04-08T09:08:27;9.35;84.84
66119;DHT22;52912;48.564;9.302;2023-04-08T09:10:54;9.33;84.86
66119;DHT22;52912;48.564;9.302;2023-04-08T09:13:21;9.57;84.23
66119;DHT22;52912;48.564;9.302;2023-04-08T09:16:02;9.51;83.56
66119;DHT22;52912;48.564;9.302;2023-04-08T09:18:27;9.71;83.29
66119;DHT22;52912;48.564;9.302;2023-04-08T09:20:53;10.08;82.23
66119;DHT22;52912;48.564;9.302;2023-04-08T09:23:18;10.16;82.33
66119;DHT22;52912;48.564;9.302;2023-04-08T09:25:45;10.19;81.92
66119;DHT22;52912;48.564;9.302;2023-04-08T09:28:18;10.53;81.26
66119;DHT22;52912;48.564;9.302;2023-04-08T09:30:43;10.74;79.60
66119;DHT22;52912;48.564;9.302;2023-04-08T09:33:09;10.87;77.64
66119;DHT22;52912;48.564;9.302;2023-04-08T09:35:34;11.15;78.74
66119;DHT22;52912;48.564;9.302;2023-04-08T09:38:00;11.29;77.78
66119;DHT22;52912;48.564;9.302;2023-04-08T09:40:26;11.08;78.64
66119;DHT22;52912;48.564;9.302;2023-04-08T09:42:54;11.26;77.54
66119;DHT22;52912;48.564;9.302;2023-04-08T09:45:21;11.57;76.51
66119;DHT22;52912;48.564;9.302;2023-04-08T09:47:55;11.42;77.19
66119;DHT22;52912;48.564;9.302;2023-04-08T09:50:23;11.56;76.60
66119;DHT22;52912;48.564;9.302;2023-04-08T09:52:55;11.63;76.69
66119;DHT22;52912;48.564;9.302;2023-04-08T09:55:21;11.89;75.40
66119;DHT22;52912;48.564;9.302;2023-04-08T09:57:51;12.01;73.54
66119;DHT22;52912;48.564;9.302;2023-04-08T10:00:18;12.06;73.67
66119;DHT22;52912;48.564;9.302;2023-04-08T10:02:48;12.02;72.73
66119;DHT22;52912;48.564;9.302;2023-04-08T10:05:17;12.04;71.67
66119;DHT22;52912;48.564;9.302;2023-04-08T10:07:43;12.23;69.77
66119;DHT22;52912;48.564;9.302;2023-04-08T10:10:09;12.12;71.28
66119;DHT22;52912;48.564;9.302;2023-04-08T10:12:35;12.37;70.52
66119;DHT22;52912;48.564;9.302;2023-04-08T10:15:27;12.05;68.98
66119;DHT22;52912;48.564;9.302;2023-04-08T10:17:53;12.34;68.64
66119;DHT22;52912;48.564;9.302;2023-04-08T10:20:41;12.54;68.84
66119;DHT22;52912;48.564;9.302;2023-04-08T10:23:08;12.78;70.94
66119;DHT22;52912;48.564;9.302;2023-04-08T10:25:34;12.47;69.17
66119;DHT22;52912;48.564;9.302;2023-04-08T10:30:49;13.08;66.81
66119;DHT22;52912;48.564;9.302;2023-04-08T10:33:16;13.06;66.28
66119;DHT22;52912;48.564;9.302;2023-04-08T10:35:46;13.15;66.78
66119;DHT22;52912;48.564;9.302;2023-04-08T10:38:12;12.84;64.84
66119;DHT22;52912;48.564;9.302;2023-04-08T10:40:38;12.57;68.39
66119;DHT22;52912;48.564;9.302;2023-04-08T10:43:04;12.36;67.25
66119;DHT22;52912;48.564;9.302;2023-04-08T10:45:29;12.57;67.61
66119;DHT22;52912;48.564;9.302;2023-04-08T10:47:56;12.75;66.40
66119;DHT22;52912;48.564;9.302;2023-04-08T10:50:22;12.94;65.91
66119;DHT22;52912;48.564;9.302;2023-04-08T10:52:47;12.75;65.62
66119;DHT22;52912;48.564;9.302;2023-04-08T10:55:13;12.47;67.41
66119;DHT22;52912;48.564;9.302;2023-04-08T10:57:39;12.56;66.96
66119;DHT22;52912;48.564;9.302;2023-04-08T11:00:05;12.15;68.26
66119;DHT22;52912;48.564;9.302;2023-04-08T11:02:36;11.98;68.66
66119;DHT22;52912;48.564;9.302;2023-04-08T11:05:04;12.09;68.52
66119;DHT22;52912;48.564;9.302;2023-04-08T11:07:29;12.26;67.20
66119;DHT22;52912;48.564;9.302;2023-04-08T11:09:55;11.77;67.75
66119;DHT22;52912;48.564;9.302;2023-04-08T11:12:21;11.56;68.40
66119;DHT22;52912;48.564;9.302;2023-04-08T11:14:47;11.33;69.10
66119;DHT22;52912;48.564;9.302;2023-04-08T11:17:13;11.09;68.80
66119;DHT22;52912;48.564;9.302;2023-04-08T11:19:39;11.42;68.20
66119;DHT22;52912;48.564;9.302;2023-04-08T11:22:06;11.14;68.58
66119;DHT22;52912;48.564;9.302;2023-04-08T11:24:32;11.16;67.67
66119;DHT22;52912;48.564;9.302;2023-04-08T11:26:57;11.25;69.22
66119;DHT22;52912;48.564;9.302;2023-04-08T11:29:23;11.30;68.87
66119;DHT22;52912;48.564;9.302;2023-04-08T11:31:48;11.19;68.91
66119;DHT22;52912;48.564;9.302;2023-04-08T11:34:21;11.01;68.39
66119;DHT22;52912;48.564;9.302;2023-04-08T11:36:46;11.25;68.50
66119;DHT22;52912;48.564;9.302;2023-04-08T11:39:13;11.22;68.06
66119;DHT22;52912;48.564;9.302;2023-04-08T11:41:39;11.26;67.96
66119;DHT22;52912;48.564;9.302;2023-04-08T11:44:04;11.08;67.33
66119;DHT22;52912;48.564;9.302;2023-04-08T11:46:30;11.46;67.23
66119;DHT22;52912;48.564;9.302;2023-04-08T11:49:00;11.32;65.88
66119;DHT22;52912;48.564;9.302;2023-04-08T11:51:25;11.27;66.22
66119;DHT22;52912;48.564;9.302;2023-04-08T11:53:51;11.34;65.99
66119;DHT22;52912;48.564;9.302;2023-04-08T11:56:19;11.11;65.28
66119;DHT22;52912;48.564;9.302;2023-04-08T11:58:44;11.39;65.76
66119;DHT22;52912;48.564;9.302;2023-04-08T12:01:10;11.49;64.27
66119;DHT22;52912;48.564;9.302;2023-04-08T12:03:35;11.22;64.57
66119;DHT22;52912;48.564;9.302;2023-04-08T12:06:02;11.33;65.18
66119;DHT22;52912;48.564;9.302;2023-04-08T12:08:27;11.36;66.26
66119;DHT22;52912;48.564;9.302;2023-04-08T12:10:53;11.37;65.17
66119;DHT22;52912;48.564;9.302;2023-04-08T12:13:20;11.11;62.66
66119;DHT22;52912;48.564;9.302;2023-04-08T12:15:45;11.27;64.29
66119;DHT22;52912;48.564;9.302;2023-04-08T12:18:11;11.09;63.92
66119;DHT22;52912;48.564;9.302;2023-04-08T12:20:36;10.99;63.40
66119;DHT22;52912;48.564;9.302;2023-04-08T12:23:01;10.95;62.93
66119;DHT22;52912;48.564;9.302;2023-04-08T12:25:27;11.15;62.99
66119;DHT22;52912;48.564;9.302;2023-04-08T12:27:52;11.29;63.36
66119;DHT22;52912;48.564;9.302;2023-04-08T12:30:19;11.43;62.74
66119;DHT22;52912;48.564;9.302;2023-04-08T12:32:45;11.12;63.02
66119;DHT22;52912;48.564;9.302;2023-04-08T12:35:10;11.08;62.92
66119;DHT22;52912;48.564;9.302;2023-04-08T12:37:35;11.22;62.91
66119;DHT22;52912;48.564;9.302;2023-04-08T12:40:01;11.32;62.28
66119;DHT22;52912;48.564;9.302;2023-04-08T12:42:26;11.29;62.14
66119;DHT22;52912;48.564;9.302;2023-04-08T12:44:52;11.15;62.36
66119;DHT22;52912;48.564;9.302;2023-04-08T12:47:19;11.30;62.77
66119;DHT22;52912;48.564;9.302;2023-04-08T12:49:44;11.66;62.51
66119;DHT22;52912;48.564;9.302;2023-04-08T12:52:10;11.70;62.72
66119;DHT22;52912;48.564;9.302;2023-04-08T12:54:35;11.85;61.45
66119;DHT22;52912;48.564;9.302;2023-04-08T12:57:00;11.50;61.94
66119;DHT22;52912;48.564;9.302;2023-04-08T12:59:26;11.40;62.16
66119;DHT22;52912;48.564;9.302;2023-04-08T13:01:51;11.11;63.25
66119;DHT22;52912;48.564;9.302;2023-04-08T13:04:18;11.23;63.84
66119;DHT22;52912;48.564;9.302;2023-04-08T13:06:43;11.42;63.91
66119;DHT22;52912;48.564;9.302;2023-04-08T13:09:09;11.57;65.17
66119;DHT22;52912;48.564;9.302;2023-04-08T13:11:34;11.29;63.93
66119;DHT22;52912;48.564;9.302;2023-04-08T13:14:00;11.16;64.49
66119;DHT22;52912;48.564;9.302;2023-04-08T13:16:25;11.08;65.69
66119;DHT22;52912;48.564;9.302;2023-04-08T13:18:51;10.88;65.86
66119;DHT22;52912;48.564;9.302;2023-04-08T13:21:18;11.08;66.30
66119;DHT22;52912;48.564;9.302;2023-04-08T13:23:43;10.95;65.75
66119;DHT22;52912;48.564;9.302;2023-04-08T13:26:08;10.97;64.93
66119;DHT22;52912;48.564;9.302;2023-04-08T13:28:34;10.81;65.78
66119;DHT22;52912;48.564;9.302;2023-04-08T13:30:59;10.67;66.32
66119;DHT22;52912;48.564;9.302;2023-04-08T13:33:25;10.70;67.33
66119;DHT22;52912;48.564;9.302;2023-04-08T13:35:50;10.82;67.46
66119;DHT22;52912;48.564;9.302;2023-04-08T13:38:17;10.63;67.16
66119;DHT22;52912;48.564;9.302;2023-04-08T13:40:42;10.82;67.31
66119;DHT22;52912;48.564;9.302;2023-04-08T13:43:08;10.75;67.91
66119;DHT22;52912;48.564;9.302;2023-04-08T13:45:33;10.61;67.68
66119;DHT22;52912;48.564;9.302;2023-04-08T13:47:59;10.60;68.24
66119;DHT22;52912;48.564;9.302;2023-04-08T13:50:24;10.74;69.27
66119;DHT22;52912;48.564;9.302;2023-04-08T13:52:50;10.87;68.83
66119;DHT22;52912;48.564;9.302;2023-04-08T13:55:17;10.78;68.72
66119;DHT22;52912;48.564;9.302;2023-04-08T13:57:42;10.94;67.96
66119;DHT22;52912;48.564;9.302;2023-04-08T14:00:09;10.81;68.55
66119;DHT22;52912;48.564;9.302;2023-04-08T14:02:34;10.89;68.07
66119;DHT22;52912;48.564;9.302;2023-04-08T14:05:00;10.70;68.96
66119;DHT22;52912;48.564;9.302;2023-04-08T14:07:25;10.99;68.42
66119;DHT22;52912;48.564;9.302;2023-04-08T14:09:51;10.71;69.36
66119;DHT22;52912;48.564;9.302;2023-04-08T14:12:17;10.65;69.78
66119;DHT22;52912;48.564;9.302;2023-04-08T14:14:43;10.59;69.45
66119;DHT22;52912;48.564;9.302;2023-04-08T14:17:08;10.43;69.64
66119;DHT22;52912;48.564;9.302;2023-04-08T14:19:34;10.53;69.12
66119;DHT22;52912;48.564;9.302;2023-04-08T14:21:59;10.61;69.81
66119;DHT22;52912;48.564;9.302;2023-04-08T14:24:25;10.65;69.40
66119;DHT22;52912;48.564;9.302;2023-04-08T14:26:50;10.50;69.00
66119;DHT22;52912;48.564;9.302;2023-04-08T14:29:17;10.35;69.80
66119;DHT22;52912;48.564;9.302;2023-04-08T14:31:42;10.60;69.30
66119;DHT22;52912;48.564;9.302;2023-04-08T14:34:08;10.68;68.75
66119;DHT22;52912;48.564;9.302;2023-04-08T14:36:33;10.61;69.26
66119;DHT22;52912;48.564;9.302;2023-04-08T14:38:59;10.71;69.32
66119;DHT22;52912;48.564;9.302;2023-04-08T14:41:24;10.75;69.68
66119;DHT22;52912;48.564;9.302;2023-04-08T14:43:50;10.65;69.51
66119;DHT22;52912;48.564;9.302;2023-04-08T14:46:17;10.77;69.47
66119;DHT22;52912;48.564;9.302;2023-04-08T14:48:42;10.82;70.23
66119;DHT22;52912;48.564;9.302;2023-04-08T14:51:08;10.88;68.78
66119;DHT22;52912;48.564;9.302;2023-04-08T14:53:33;10.84;68.55
66119;DHT22;52912;48.564;9.302;2023-04-08T14:55:59;10.60;68.26
66119;DHT22;52912;48.564;9.302;2023-04-08T14:58:24;10.40;69.03
66119;DHT22;52912;48.564;9.302;2023-04-08T15:00:50;10.52;69.72
66119;DHT22;52912;48.564;9.302;2023-04-08T15:03:17;10.50;69.11
66119;DHT22;52912;48.564;9.302;2023-04-08T15:05:42;10.63;69.42
66119;DHT22;52912;48.564;9.302;2023-04-08T15:08:08;10.64;69.31
66119;DHT22;52912;48.564;9.302;2023-04-08T15:10:33;10.56;69.60
66119;DHT22;52912;48.564;9.302;2023-04-08T15:12:59;10.47;69.98
66119;DHT22;52912;48.564;9.302;2023-04-08T15:15:25;10.33;69.91
66119;DHT22;52912;48.564;9.302;2023-04-08T15:17:50;10.53;70.32
66119;DHT22;52912;48.564;9.302;2023-04-08T15:20:17;10.50;70.36
66119;DHT22;52912;48.564;9.302;2023-04-08T15:22:42;10.44;70.39
66119;DHT22;52912;48.564;9.302;2023-04-08T15:25:09;10.54;70.53
66119;DHT22;52912;48.564;9.302;2023-04-08T15:27:34;10.37;71.24
66119;DHT22;52912;48.564;9.302;2023-04-08T15:30:00;10.60;70.70
66119;DHT22;52912;48.564;9.302;2023-04-08T15:32:25;10.57;71.37
66119;DHT22;52912;48.564;9.302;2023-04-08T15:34:51;10.49;70.99
66119;DHT22;52912;48.564;9.302;2023-04-08T15:37:18;10.28;71.06